createdAt,value
2019-05-12T00:01:41.916Z,15.00
2019-05-12T00:06:43.624Z,19.27
2019-05-12T00:11:45.372Z,15.07
2019-05-12T00:16:49.074Z,17.93
2019-05-12T00:21:50.591Z,15.17
2019-05-12T00:26:54.105Z,21.20
2019-05-12T00:31:57.918Z,23.40
2019-05-12T00:36:59.474Z,18.33
2019-05-12T00:42:01.265Z,25.80
2019-05-12T00:47:03.037Z,22.23
2019-05-12T00:52:04.729Z,23.07
2019-05-12T00:57:07.753Z,32.17
2019-05-12T01:02:09.585Z,33.67
2019-05-12T01:07:11.665Z,31.77
2019-05-12T01:12:13.444Z,34.60
2019-05-12T01:17:17.246Z,31.67
2019-05-12T01:22:18.829Z,31.43
2019-05-12T01:27:20.620Z,34.40
2019-05-12T01:32:30.525Z,30.67
2019-05-12T01:37:32.222Z,32.80
2019-05-12T01:42:33.957Z,33.97
2019-05-12T01:47:38.027Z,31.50
2019-05-12T01:52:39.216Z,30.37
2019-05-12T01:57:41.005Z,29.43
2019-05-12T02:02:42.710Z,28.23
2019-05-12T02:07:52.610Z,28.03
2019-05-12T02:12:54.324Z,30.00
2019-05-12T02:17:58.617Z,31.67
2019-05-12T02:22:59.621Z,26.00
2019-05-12T02:28:01.398Z,26.97
2019-05-12T02:33:05.199Z,29.30
2019-05-12T02:38:06.664Z,32.90
2019-05-12T02:43:08.420Z,28.77
2019-05-12T02:48:10.149Z,29.30
2019-05-12T02:53:14.445Z,23.77
2019-05-12T02:58:15.781Z,26.70
2019-05-12T03:03:19.292Z,27.70
2019-05-12T03:08:25.346Z,26.87
2019-05-12T03:13:25.885Z,27.40
2019-05-12T03:18:27.667Z,28.97
2019-05-12T03:23:29.361Z,27.10
2019-05-12T03:28:31.117Z,27.27
2019-05-12T03:33:36.064Z,29.20
2019-05-12T03:38:36.349Z,28.83
2019-05-12T03:43:38.098Z,27.37
2019-05-12T03:48:39.864Z,23.30
2019-05-12T03:53:45.106Z,25.77
2019-05-12T03:58:45.424Z,24.47
2019-05-12T04:03:47.267Z,25.77
2019-05-12T04:08:49.007Z,22.83
2019-05-12T04:13:50.705Z,22.73
2019-05-12T04:18:55.238Z,25.40
2019-05-12T04:23:55.982Z,26.30
2019-05-12T04:28:57.669Z,23.93
2019-05-12T04:33:59.362Z,23.83
2019-05-12T04:39:04.197Z,24.53
2019-05-12T04:44:05.780Z,22.63
2019-05-12T04:49:08.045Z,23.93
2019-05-12T04:54:09.818Z,22.73
2019-05-12T04:59:11.534Z,23.70
2019-05-12T05:04:15.444Z,19.20
2019-05-12T05:09:16.780Z,21.63
2019-05-12T05:14:18.553Z,22.23
2019-05-12T05:19:20.292Z,23.10
2019-05-12T05:24:23.544Z,21.40
2019-05-12T05:29:25.524Z,22.17
2019-05-12T05:34:27.312Z,21.50
2019-05-12T05:39:29.011Z,22.33
2019-05-12T05:44:36.351Z,20.43
2019-05-12T05:49:34.310Z,22.17
2019-05-12T05:54:38.240Z,20.80
2019-05-12T05:59:39.498Z,21.37
2019-05-12T06:04:47.101Z,21.33
2019-05-12T06:09:44.776Z,20.83
2019-05-12T06:14:54.323Z,24.07
2019-05-12T06:19:50.133Z,18.97
2019-05-12T06:24:56.860Z,18.17
2019-05-12T06:30:00.905Z,15.90
2019-05-12T06:35:01.535Z,16.17
2019-05-12T06:40:03.580Z,20.67
2019-05-12T06:45:05.638Z,15.07
2019-05-12T06:50:07.456Z,16.50
2019-05-12T06:55:09.252Z,15.57
2019-05-12T07:00:10.968Z,16.30
2019-05-12T07:05:14.609Z,14.27
2019-05-12T07:10:35.615Z,16.70
2019-05-12T07:15:19.877Z,17.10
2019-05-12T07:20:23.901Z,13.90
2019-05-12T07:25:31.479Z,13.47
2019-05-12T07:30:31.892Z,15.20
2019-05-12T07:35:33.705Z,12.43
2019-05-12T07:40:37.870Z,15.43
2019-05-12T07:45:41.079Z,15.63
2019-05-12T07:50:43.334Z,12.47
2019-05-12T07:55:49.395Z,11.63
2019-05-12T08:00:56.269Z,11.53
2019-05-12T08:05:57.399Z,10.90
2019-05-12T08:10:56.123Z,11.13
2019-05-12T08:15:58.057Z,11.30
2019-05-12T08:21:00.277Z,8.80
2019-05-12T08:26:03.558Z,9.43
2019-05-12T08:31:05.533Z,12.07
2019-05-12T08:36:11.252Z,11.20
2019-05-12T08:41:10.877Z,13.43
2019-05-12T08:46:15.509Z,9.67
2019-05-12T08:51:19.444Z,8.93
2019-05-12T08:56:23.136Z,8.67
2019-05-12T09:01:26.660Z,6.60
2019-05-12T09:06:26.682Z,8.43
2019-05-12T09:11:28.447Z,6.50
2019-05-12T09:16:30.157Z,7.17
2019-05-12T09:21:34.381Z,6.73
2019-05-12T09:26:35.547Z,5.57
2019-05-12T09:31:37.295Z,10.53
2019-05-12T09:36:39.021Z,5.57
2019-05-12T09:41:43.969Z,4.23
2019-05-12T09:46:44.265Z,5.70
2019-05-12T09:51:46.183Z,5.23
2019-05-12T09:56:49.802Z,6.03
2019-05-12T10:01:51.449Z,7.53
2019-05-12T10:06:53.464Z,5.07
2019-05-12T10:12:00.530Z,7.53
2019-05-12T10:16:58.813Z,4.53
2019-05-12T10:22:00.698Z,5.37
2019-05-12T10:27:03.812Z,4.83
2019-05-12T10:32:05.719Z,4.30
2019-05-12T10:37:07.421Z,2.20
2019-05-12T10:42:09.334Z,4.47
2019-05-12T10:47:13.526Z,3.40
2019-05-12T10:52:15.458Z,3.53
2019-05-12T10:57:17.178Z,4.87
2019-05-12T11:02:20.407Z,2.97
2019-05-12T11:07:22.940Z,7.20
2019-05-12T11:12:29.110Z,5.47
2019-05-12T11:17:49.818Z,5.50
2019-05-12T11:22:54.114Z,2.97
2019-05-12T11:27:55.306Z,3.37
2019-05-12T11:32:59.581Z,2.70
2019-05-12T11:38:00.624Z,4.07
2019-05-12T11:43:04.693Z,4.17
2019-05-12T11:48:10.128Z,2.33
2019-05-12T11:53:10.041Z,3.60
2019-05-12T11:58:11.834Z,2.50
2019-05-12T12:03:17.794Z,4.27
2019-05-12T12:08:17.096Z,7.67
2019-05-12T12:13:19.267Z,3.30
2019-05-12T12:18:23.511Z,2.93
2019-05-12T12:23:25.642Z,3.90
2019-05-12T12:28:27.360Z,3.40
2019-05-12T12:33:31.037Z,3.07
2019-05-12T12:38:33.463Z,3.60
2019-05-12T12:43:35.284Z,3.13
2019-05-12T12:48:36.996Z,5.00
2019-05-12T12:53:38.700Z,7.10
2019-05-12T12:58:40.512Z,0.67
2019-05-12T13:03:43.498Z,3.97
2019-05-12T13:08:45.334Z,9.37
2019-05-12T13:13:47.045Z,7.53
2019-05-12T13:18:48.856Z,4.80
2019-05-12T13:23:51.188Z,3.77
2019-05-12T13:28:54.977Z,2.70
2019-05-12T13:33:56.689Z,2.67
2019-05-12T13:38:58.424Z,3.87
2019-05-12T13:44:00.203Z,3.17
2019-05-12T13:49:03.165Z,4.47
2019-05-12T13:54:04.954Z,4.13
2019-05-12T13:59:06.756Z,3.10
2019-05-12T14:04:08.534Z,4.77
2019-05-12T14:09:10.305Z,3.03
2019-05-12T14:14:15.168Z,2.90
2019-05-12T14:19:15.615Z,4.43
2019-05-12T14:24:17.487Z,4.20
2019-05-12T14:29:20.383Z,3.27
2019-05-12T14:34:23.598Z,7.60
2019-05-12T14:39:25.477Z,6.27
2019-05-12T14:44:27.261Z,3.43
2019-05-12T14:49:30.608Z,5.60
2019-05-12T14:54:34.291Z,5.47
2019-05-12T14:59:40.951Z,5.13
2019-05-12T15:04:39.575Z,3.60
2019-05-12T15:09:41.357Z,10.57
2019-05-12T15:14:43.801Z,9.83
2019-05-12T15:19:45.723Z,8.37
2019-05-12T15:24:49.229Z,6.67
2019-05-12T15:29:57.863Z,8.97
2019-05-12T15:34:54.516Z,7.60
2019-05-12T15:39:56.315Z,8.17
2019-05-12T15:44:58.014Z,5.10
2019-05-12T15:49:59.769Z,7.27
2019-05-12T15:55:01.550Z,5.73
2019-05-12T16:00:04.979Z,8.30
2019-05-12T16:05:06.954Z,10.50
2019-05-12T16:10:08.847Z,9.03
2019-05-12T16:15:17.377Z,10.17
2019-05-12T16:20:15.561Z,12.50
2019-05-12T16:25:20.646Z,8.57
2019-05-12T16:30:25.985Z,17.23
2019-05-12T16:35:26.589Z,15.87
2019-05-12T16:40:27.861Z,11.93
2019-05-12T16:45:29.670Z,11.00
2019-05-12T16:50:31.381Z,9.73
2019-05-12T16:55:44.907Z,10.93
2019-05-12T17:00:39.645Z,10.00
2019-05-12T17:05:40.149Z,12.17
2019-05-12T17:10:46.971Z,10.33
2019-05-12T17:15:48.650Z,9.37
2019-05-12T17:20:50.955Z,9.40
2019-05-12T17:25:52.589Z,11.97
2019-05-12T17:30:54.585Z,11.83
2019-05-12T17:35:56.437Z,14.33
2019-05-12T17:41:00.706Z,15.73
2019-05-12T17:46:04.322Z,14.23
2019-05-12T17:51:05.249Z,9.10
2019-05-12T17:56:07.018Z,8.00
2019-05-12T18:01:08.713Z,12.57
2019-05-12T18:06:10.466Z,10.93
2019-05-12T18:11:15.817Z,13.17
2019-05-12T18:16:20.424Z,14.63
2019-05-12T18:21:21.695Z,17.20
2019-05-12T18:26:24.664Z,16.17
2019-05-12T18:31:26.521Z,16.50
2019-05-12T18:36:28.290Z,12.63
2019-05-12T18:41:29.991Z,15.93
2019-05-12T18:46:36.326Z,16.10
2019-05-12T18:51:35.255Z,15.87
2019-05-12T18:56:37.043Z,12.70
2019-05-12T19:01:39.154Z,12.03
2019-05-12T19:06:40.917Z,8.97
2019-05-12T19:11:46.416Z,8.83
2019-05-12T19:16:46.184Z,9.30
2019-05-12T19:21:58.524Z,5.80
2019-05-12T19:26:53.984Z,9.73
2019-05-12T19:31:57.960Z,6.70
2019-05-12T19:36:58.618Z,8.97
2019-05-12T19:42:00.314Z,8.53
2019-05-12T19:47:02.088Z,7.63
2019-05-12T19:52:03.860Z,7.70
2019-05-12T19:57:05.552Z,6.67
2019-05-12T20:02:07.237Z,6.80
2019-05-12T20:07:08.929Z,9.50
2019-05-12T20:12:18.003Z,7.03
2019-05-12T20:17:14.124Z,8.37
2019-05-12T20:22:15.842Z,6.77
2019-05-12T20:27:21.990Z,7.70
2019-05-12T20:32:21.128Z,8.60
2019-05-12T20:37:22.833Z,6.70
2019-05-12T20:42:24.524Z,7.13
2019-05-12T20:47:26.226Z,8.97
2019-05-12T20:52:27.924Z,5.33
2019-05-12T20:57:29.630Z,7.50
2019-05-12T21:02:33.736Z,5.57
2019-05-12T21:07:34.879Z,5.70
2019-05-12T21:12:40.231Z,4.37
2019-05-12T21:17:43.460Z,6.23
2019-05-12T21:22:43.761Z,6.00
2019-05-12T21:27:47.754Z,4.23
2019-05-12T21:32:59.312Z,5.60
2019-05-12T21:37:53.712Z,5.20
2019-05-12T21:42:55.580Z,5.73
2019-05-12T21:47:57.280Z,6.83
2019-05-12T21:52:59.984Z,3.80
2019-05-12T21:58:10.479Z,3.57
2019-05-12T22:03:13.020Z,5.70
2019-05-12T22:08:20.644Z,3.13
2019-05-12T22:13:18.217Z,4.77
2019-05-12T22:18:20.075Z,4.07
2019-05-12T22:23:24.561Z,4.27
2019-05-12T22:28:25.389Z,4.70
2019-05-12T22:33:27.139Z,3.37
2019-05-12T22:38:28.905Z,4.43
2019-05-12T22:43:31.417Z,3.63
2019-05-12T22:48:37.256Z,2.93
2019-05-12T22:53:37.721Z,4.80
2019-05-12T22:58:39.424Z,3.57
2019-05-12T23:03:43.157Z,3.17
2019-05-12T23:08:49.094Z,2.37
2019-05-12T23:13:48.187Z,4.30
2019-05-12T23:18:49.897Z,3.57
2019-05-12T23:23:57.442Z,2.90
2019-05-12T23:28:55.170Z,2.80
2019-05-12T23:33:56.952Z,2.37
2019-05-12T23:39:17.109Z,2.93
2019-05-12T23:44:18.809Z,4.47
2019-05-12T23:49:20.520Z,3.30
2019-05-12T23:54:23.840Z,3.47
2019-05-12T23:59:25.693Z,5.17
